sensor_id;sensor_type;location;lat;lon;timestamp;P1;P2;P0
49462;PMS5003;35357;51.722;0.500;2023-06-24T00:01:26;9;9;
49462;PMS5003;35357;51.722;0.500;2023-06-24T00:03:54;10;9;
49462;PMS5003;35357;51.722;0.500;2023-06-24T00:06:20;9;9;
49462;PMS5003;35357;51.722;0.500;2023-06-24T00:08:48;9;9;
49462;PMS5003;35357;51.722;0.500;2023-06-24T00:11:16;9;9;
49462;PMS5003;35357;51.722;0.500;2023-06-24T00:13:42;10;10;
49462;PMS5003;35357;51.722;0.500;2023-06-24T00:16:10;9;9;
49462;PMS5003;35357;51.722;0.500;2023-06-24T00:18:38;9;8;
49462;PMS5003;35357;51.722;0.500;2023-06-24T00:21:04;8;8;
49462;PMS5003;35357;51.722;0.500;2023-06-24T00:23:31;11;10;
49462;PMS5003;35357;51.722;0.500;2023-06-24T00:25:59;10;10;
49462;PMS5003;35357;51.722;0.500;2023-06-24T00:28:26;9;9;
49462;PMS5003;35357;51.722;0.500;2023-06-24T00:30:54;10;9;
49462;PMS5003;35357;51.722;0.500;2023-06-24T00:33:21;9;9;
49462;PMS5003;35357;51.722;0.500;2023-06-24T00:35:47;9;9;
49462;PMS5003;35357;51.722;0.500;2023-06-24T00:38:14;9;9;
49462;PMS5003;35357;51.722;0.500;2023-06-24T00:40:41;11;10;
49462;PMS5003;35357;51.722;0.500;2023-06-24T00:43:09;9;9;
49462;PMS5003;35357;51.722;0.500;2023-06-24T00:45:36;10;9;
49462;PMS5003;35357;51.722;0.500;2023-06-24T00:48:04;11;11;
49462;PMS5003;35357;51.722;0.500;2023-06-24T00:50:32;11;11;
49462;PMS5003;35357;51.722;0.500;2023-06-24T00:52:58;9;9;
49462;PMS5003;35357;51.722;0.500;2023-06-24T00:55:25;9;9;
49462;PMS5003;35357;51.722;0.500;2023-06-24T00:57:52;8;8;
49462;PMS5003;35357;51.722;0.500;2023-06-24T01:00:20;8;8;
49462;PMS5003;35357;51.722;0.500;2023-06-24T01:02:49;10;10;
49462;PMS5003;35357;51.722;0.500;2023-06-24T01:05:17;14;12;
49462;PMS5003;35357;51.722;0.500;2023-06-24T01:07:44;11;11;
49462;PMS5003;35357;51.722;0.500;2023-06-24T01:10:13;10;10;
49462;PMS5003;35357;51.722;0.500;2023-06-24T01:12:40;9;9;
49462;PMS5003;35357;51.722;0.500;2023-06-24T01:15:08;12;11;
49462;PMS5003;35357;51.722;0.500;2023-06-24T01:17:39;11;11;
49462;PMS5003;35357;51.722;0.500;2023-06-24T01:20:15;12;12;
49462;PMS5003;35357;51.722;0.500;2023-06-24T01:22:57;10;10;
49462;PMS5003;35357;51.722;0.500;2023-06-24T01:25:43;13;12;
49462;PMS5003;35357;51.722;0.500;2023-06-24T01:28:33;13;12;
49462;PMS5003;35357;51.722;0.500;2023-06-24T01:31:44;13;13;
49462;PMS5003;35357;51.722;0.500;2023-06-24T01:34:16;13;12;
49462;PMS5003;35357;51.722;0.500;2023-06-24T01:36:53;13;12;
49462;PMS5003;35357;51.722;0.500;2023-06-24T01:39:27;11;10;
49462;PMS5003;35357;51.722;0.500;2023-06-24T01:42:00;11;11;
49462;PMS5003;35357;51.722;0.500;2023-06-24T01:44:34;13;12;
49462;PMS5003;35357;51.722;0.500;2023-06-24T01:47:01;12;12;
49462;PMS5003;35357;51.722;0.500;2023-06-24T01:49:31;12;12;
49462;PMS5003;35357;51.722;0.500;2023-06-24T01:51:59;12;12;
49462;PMS5003;35357;51.722;0.500;2023-06-24T01:54:27;13;12;
49462;PMS5003;35357;51.722;0.500;2023-06-24T01:56:56;14;14;
49462;PMS5003;35357;51.722;0.500;2023-06-24T01:59:26;13;12;
49462;PMS5003;35357;51.722;0.500;2023-06-24T02:01:55;12;12;
49462;PMS5003;35357;51.722;0.500;2023-06-24T02:04:25;14;13;
49462;PMS5003;35357;51.722;0.500;2023-06-24T02:06:55;11;11;
49462;PMS5003;35357;51.722;0.500;2023-06-24T02:09:22;12;12;
49462;PMS5003;35357;51.722;0.500;2023-06-24T02:11:51;12;11;
49462;PMS5003;35357;51.722;0.500;2023-06-24T02:14:19;13;13;
49462;PMS5003;35357;51.722;0.500;2023-06-24T02:16:47;15;14;
49462;PMS5003;35357;51.722;0.500;2023-06-24T02:19:16;11;11;
49462;PMS5003;35357;51.722;0.500;2023-06-24T02:21:43;14;14;
49462;PMS5003;35357;51.722;0.500;2023-06-24T02:24:12;13;13;
49462;PMS5003;35357;51.722;0.500;2023-06-24T02:26:41;12;12;
49462;PMS5003;35357;51.722;0.500;2023-06-24T02:29:08;11;11;
49462;PMS5003;35357;51.722;0.500;2023-06-24T02:31:37;14;13;
49462;PMS5003;35357;51.722;0.500;2023-06-24T02:34:04;10;10;
49462;PMS5003;35357;51.722;0.500;2023-06-24T02:36:31;10;10;
49462;PMS5003;35357;51.722;0.500;2023-06-24T02:38:58;14;13;
49462;PMS5003;35357;51.722;0.500;2023-06-24T02:41:25;15;14;
49462;PMS5003;35357;51.722;0.500;2023-06-24T02:43:52;14;12;
49462;PMS5003;35357;51.722;0.500;2023-06-24T02:46:19;17;16;
49462;PMS5003;35357;51.722;0.500;2023-06-24T02:48:48;13;13;
49462;PMS5003;35357;51.722;0.500;2023-06-24T02:51:16;14;13;
49462;PMS5003;35357;51.722;0.500;2023-06-24T02:53:45;10;10;
49462;PMS5003;35357;51.722;0.500;2023-06-24T02:56:13;14;14;
49462;PMS5003;35357;51.722;0.500;2023-06-24T02:58:40;9;9;
49462;PMS5003;35357;51.722;0.500;2023-06-24T03:01:08;13;13;
49462;PMS5003;35357;51.722;0.500;2023-06-24T03:03:36;14;13;
49462;PMS5003;35357;51.722;0.500;2023-06-24T03:06:04;13;12;
49462;PMS5003;35357;51.722;0.500;2023-06-24T03:08:32;16;15;
49462;PMS5003;35357;51.722;0.500;2023-06-24T03:10:58;13;13;
49462;PMS5003;35357;51.722;0.500;2023-06-24T03:13:26;15;14;
49462;PMS5003;35357;51.722;0.500;2023-06-24T03:15:52;12;12;
49462;PMS5003;35357;51.722;0.500;2023-06-24T03:18:19;10;10;
49462;PMS5003;35357;51.722;0.500;2023-06-24T03:20:47;15;15;
49462;PMS5003;35357;51.722;0.500;2023-06-24T03:23:14;14;14;
49462;PMS5003;35357;51.722;0.500;2023-06-24T03:25:42;12;12;
49462;PMS5003;35357;51.722;0.500;2023-06-24T03:28:08;13;12;
49462;PMS5003;35357;51.722;0.500;2023-06-24T03:30:35;15;15;
49462;PMS5003;35357;51.722;0.500;2023-06-24T03:33:02;13;12;
49462;PMS5003;35357;51.722;0.500;2023-06-24T03:35:29;19;16;
49462;PMS5003;35357;51.722;0.500;2023-06-24T03:37:56;15;14;
49462;PMS5003;35357;51.722;0.500;2023-06-24T03:40:24;15;15;
49462;PMS5003;35357;51.722;0.500;2023-06-24T03:42:51;16;16;
49462;PMS5003;35357;51.722;0.500;2023-06-24T03:45:18;15;14;
49462;PMS5003;35357;51.722;0.500;2023-06-24T03:47:45;17;17;
49462;PMS5003;35357;51.722;0.500;2023-06-24T03:50:11;19;19;
49462;PMS5003;35357;51.722;0.500;2023-06-24T03:52:39;18;16;
49462;PMS5003;35357;51.722;0.500;2023-06-24T03:55:06;16;15;
49462;PMS5003;35357;51.722;0.500;2023-06-24T03:57:33;17;17;
49462;PMS5003;35357;51.722;0.500;2023-06-24T04:00:00;13;13;
49462;PMS5003;35357;51.722;0.500;2023-06-24T04:02:29;15;14;
49462;PMS5003;35357;51.722;0.500;2023-06-24T04:04:57;19;17;
49462;PMS5003;35357;51.722;0.500;2023-06-24T04:07:24;16;14;
49462;PMS5003;35357;51.722;0.500;2023-06-24T04:09:50;14;14;
49462;PMS5003;35357;51.722;0.500;2023-06-24T04:12:17;14;14;
49462;PMS5003;35357;51.722;0.500;2023-06-24T04:14:45;16;15;
49462;PMS5003;35357;51.722;0.500;2023-06-24T04:17:12;16;14;
49462;PMS5003;35357;51.722;0.500;2023-06-24T04:19:40;18;16;
49462;PMS5003;35357;51.722;0.500;2023-06-24T04:22:07;21;20;
49462;PMS5003;35357;51.722;0.500;2023-06-24T04:24:34;16;15;
49462;PMS5003;35357;51.722;0.500;2023-06-24T04:27:00;16;14;
49462;PMS5003;35357;51.722;0.500;2023-06-24T04:29:28;16;16;
49462;PMS5003;35357;51.722;0.500;2023-06-24T04:31:55;16;16;
49462;PMS5003;35357;51.722;0.500;2023-06-24T04:34:22;17;17;
49462;PMS5003;35357;51.722;0.500;2023-06-24T04:36:49;15;15;
49462;PMS5003;35357;51.722;0.500;2023-06-24T04:39:16;16;16;
49462;PMS5003;35357;51.722;0.500;2023-06-24T04:41:43;15;15;
49462;PMS5003;35357;51.722;0.500;2023-06-24T04:44:10;17;17;
49462;PMS5003;35357;51.722;0.500;2023-06-24T04:46:37;15;15;
49462;PMS5003;35357;51.722;0.500;2023-06-24T04:49:03;17;17;
49462;PMS5003;35357;51.722;0.500;2023-06-24T04:51:31;14;14;
49462;PMS5003;35357;51.722;0.500;2023-06-24T04:53:58;16;15;
49462;PMS5003;35357;51.722;0.500;2023-06-24T04:56:25;18;18;
49462;PMS5003;35357;51.722;0.500;2023-06-24T04:58:52;17;17;
49462;PMS5003;35357;51.722;0.500;2023-06-24T05:01:19;18;16;
49462;PMS5003;35357;51.722;0.500;2023-06-24T05:03:46;18;16;
49462;PMS5003;35357;51.722;0.500;2023-06-24T05:06:14;19;18;
49462;PMS5003;35357;51.722;0.500;2023-06-24T05:08:42;16;16;
49462;PMS5003;35357;51.722;0.500;2023-06-24T05:11:08;16;16;
49462;PMS5003;35357;51.722;0.500;2023-06-24T05:13:36;18;17;
49462;PMS5003;35357;51.722;0.500;2023-06-24T05:16:04;17;15;
49462;PMS5003;35357;51.722;0.500;2023-06-24T05:18:31;16;15;
49462;PMS5003;35357;51.722;0.500;2023-06-24T05:20:58;21;20;
49462;PMS5003;35357;51.722;0.500;2023-06-24T05:23:25;19;19;
49462;PMS5003;35357;51.722;0.500;2023-06-24T05:25:52;20;18;
49462;PMS5003;35357;51.722;0.500;2023-06-24T05:28:19;18;17;
49462;PMS5003;35357;51.722;0.500;2023-06-24T05:30:46;22;21;
49462;PMS5003;35357;51.722;0.500;2023-06-24T05:33:13;20;20;
49462;PMS5003;35357;51.722;0.500;2023-06-24T05:35:42;19;19;
49462;PMS5003;35357;51.722;0.500;2023-06-24T05:38:10;18;17;
49462;PMS5003;35357;51.722;0.500;2023-06-24T05:40:37;14;14;
49462;PMS5003;35357;51.722;0.500;2023-06-24T05:43:04;17;17;
49462;PMS5003;35357;51.722;0.500;2023-06-24T05:45:31;20;19;
49462;PMS5003;35357;51.722;0.500;2023-06-24T05:47:58;19;19;
49462;PMS5003;35357;51.722;0.500;2023-06-24T05:50:26;17;16;
49462;PMS5003;35357;51.722;0.500;2023-06-24T05:52:53;19;18;
49462;PMS5003;35357;51.722;0.500;2023-06-24T05:55:20;20;18;
49462;PMS5003;35357;51.722;0.500;2023-06-24T05:57:47;20;18;
49462;PMS5003;35357;51.722;0.500;2023-06-24T06:00:14;18;18;
49462;PMS5003;35357;51.722;0.500;2023-06-24T06:02:43;17;17;
49462;PMS5003;35357;51.722;0.500;2023-06-24T06:05:10;14;14;
49462;PMS5003;35357;51.722;0.500;2023-06-24T06:07:37;16;15;
49462;PMS5003;35357;51.722;0.500;2023-06-24T06:10:05;19;18;
49462;PMS5003;35357;51.722;0.500;2023-06-24T06:12:33;19;17;
49462;PMS5003;35357;51.722;0.500;2023-06-24T06:15:00;20;17;
49462;PMS5003;35357;51.722;0.500;2023-06-24T06:17:27;15;15;
49462;PMS5003;35357;51.722;0.500;2023-06-24T06:19:54;18;17;
49462;PMS5003;35357;51.722;0.500;2023-06-24T06:22:22;16;16;
49462;PMS5003;35357;51.722;0.500;2023-06-24T06:24:49;14;13;
49462;PMS5003;35357;51.722;0.500;2023-06-24T06:27:16;16;15;
49462;PMS5003;35357;51.722;0.500;2023-06-24T06:29:43;11;11;
49462;PMS5003;35357;51.722;0.500;2023-06-24T06:32:10;13;12;
49462;PMS5003;35357;51.722;0.500;2023-06-24T06:34:37;14;13;
49462;PMS5003;35357;51.722;0.500;2023-06-24T06:37:05;13;13;
49462;PMS5003;35357;51.722;0.500;2023-06-24T06:39:32;15;15;
49462;PMS5003;35357;51.722;0.500;2023-06-24T06:41:59;12;12;
49462;PMS5003;35357;51.722;0.500;2023-06-24T06:44:26;14;12;
49462;PMS5003;35357;51.722;0.500;2023-06-24T06:46:52;15;14;
49462;PMS5003;35357;51.722;0.500;2023-06-24T06:49:20;12;12;
49462;PMS5003;35357;51.722;0.500;2023-06-24T06:51:47;17;16;
49462;PMS5003;35357;51.722;0.500;2023-06-24T06:54:14;13;12;
49462;PMS5003;35357;51.722;0.500;2023-06-24T06:56:42;13;13;
49462;PMS5003;35357;51.722;0.500;2023-06-24T06:59:09;13;13;
49462;PMS5003;35357;51.722;0.500;2023-06-24T07:01:36;11;10;
49462;PMS5003;35357;51.722;0.500;2023-06-24T07:04:04;12;12;
49462;PMS5003;35357;51.722;0.500;2023-06-24T07:06:31;12;12;
49462;PMS5003;35357;51.722;0.500;2023-06-24T07:08:57;11;11;
49462;PMS5003;35357;51.722;0.500;2023-06-24T07:11:25;11;11;
49462;PMS5003;35357;51.722;0.500;2023-06-24T07:13:51;12;11;
49462;PMS5003;35357;51.722;0.500;2023-06-24T07:16:19;14;13;
49462;PMS5003;35357;51.722;0.500;2023-06-24T07:18:46;12;10;
49462;PMS5003;35357;51.722;0.500;2023-06-24T07:21:13;11;11;
49462;PMS5003;35357;51.722;0.500;2023-06-24T07:23:40;10;10;
49462;PMS5003;35357;51.722;0.500;2023-06-24T07:26:07;10;10;
49462;PMS5003;35357;51.722;0.500;2023-06-24T07:28:34;11;11;
49462;PMS5003;35357;51.722;0.500;2023-06-24T07:31:02;11;11;
49462;PMS5003;35357;51.722;0.500;2023-06-24T07:33:29;12;12;
49462;PMS5003;35357;51.722;0.500;2023-06-24T07:35:56;11;11;
49462;PMS5003;35357;51.722;0.500;2023-06-24T07:38:23;10;10;
49462;PMS5003;35357;51.722;0.500;2023-06-24T07:40:50;9;8;
49462;PMS5003;35357;51.722;0.500;2023-06-24T07:43:17;10;10;
49462;PMS5003;35357;51.722;0.500;2023-06-24T07:45:44;11;11;
49462;PMS5003;35357;51.722;0.500;2023-06-24T07:48:11;10;10;
49462;PMS5003;35357;51.722;0.500;2023-06-24T07:50:39;8;7;
49462;PMS5003;35357;51.722;0.500;2023-06-24T07:53:06;8;7;
49462;PMS5003;35357;51.722;0.500;2023-06-24T07:55:33;9;8;
49462;PMS5003;35357;51.722;0.500;2023-06-24T07:58:00;9;8;
49462;PMS5003;35357;51.722;0.500;2023-06-24T08:00:26;8;8;
49462;PMS5003;35357;51.722;0.500;2023-06-24T08:02:53;8;8;
49462;PMS5003;35357;51.722;0.500;2023-06-24T08:05:20;8;8;
49462;PMS5003;35357;51.722;0.500;2023-06-24T08:07:46;7;6;
49462;PMS5003;35357;51.722;0.500;2023-06-24T08:10:14;6;6;
49462;PMS5003;35357;51.722;0.500;2023-06-24T08:12:42;6;5;
49462;PMS5003;35357;51.722;0.500;2023-06-24T08:15:09;7;6;
49462;PMS5003;35357;51.722;0.500;2023-06-24T08:17:37;7;7;
49462;PMS5003;35357;51.722;0.500;2023-06-24T08:20:04;8;8;
49462;PMS5003;35357;51.722;0.500;2023-06-24T08:22:31;9;9;
49462;PMS5003;35357;51.722;0.500;2023-06-24T08:24:59;7;7;
49462;PMS5003;35357;51.722;0.500;2023-06-24T08:27:26;9;8;
49462;PMS5003;35357;51.722;0.500;2023-06-24T08:29:53;11;11;
49462;PMS5003;35357;51.722;0.500;2023-06-24T08:32:20;10;10;
49462;PMS5003;35357;51.722;0.500;2023-06-24T08:34:47;7;7;
49462;PMS5003;35357;51.722;0.500;2023-06-24T08:37:14;9;8;
49462;PMS5003;35357;51.722;0.500;2023-06-24T08:39:40;10;10;
49462;PMS5003;35357;51.722;0.500;2023-06-24T08:42:07;8;8;
49462;PMS5003;35357;51.722;0.500;2023-06-24T08:44:35;9;9;
49462;PMS5003;35357;51.722;0.500;2023-06-24T08:47:01;8;8;
49462;PMS5003;35357;51.722;0.500;2023-06-24T08:49:29;9;8;
49462;PMS5003;35357;51.722;0.500;2023-06-24T08:52:00;9;9;
49462;PMS5003;35357;51.722;0.500;2023-06-24T08:54:29;9;9;
49462;PMS5003;35357;51.722;0.500;2023-06-24T08:56:59;11;10;
49462;PMS5003;35357;51.722;0.500;2023-06-24T08:59:26;8;8;
49462;PMS5003;35357;51.722;0.500;2023-06-24T09:01:54;7;7;
49462;PMS5003;35357;51.722;0.500;2023-06-24T09:04:21;11;9;
49462;PMS5003;35357;51.722;0.500;2023-06-24T09:06:48;7;7;
49462;PMS5003;35357;51.722;0.500;2023-06-24T09:09:18;8;8;
49462;PMS5003;35357;51.722;0.500;2023-06-24T09:11:53;10;10;
49462;PMS5003;35357;51.722;0.500;2023-06-24T09:14:22;9;9;
49462;PMS5003;35357;51.722;0.500;2023-06-24T09:16:51;9;9;
49462;PMS5003;35357;51.722;0.500;2023-06-24T09:19:20;8;8;
49462;PMS5003;35357;51.722;0.500;2023-06-24T09:21:48;12;10;
49462;PMS5003;35357;51.722;0.500;2023-06-24T09:24:15;10;10;
49462;PMS5003;35357;51.722;0.500;2023-06-24T09:26:43;8;7;
49462;PMS5003;35357;51.722;0.500;2023-06-24T09:29:10;10;10;
49462;PMS5003;35357;51.722;0.500;2023-06-24T09:31:45;7;6;
49462;PMS5003;35357;51.722;0.500;2023-06-24T09:34:14;8;8;
49462;PMS5003;35357;51.722;0.500;2023-06-24T09:36:42;8;8;
49462;PMS5003;35357;51.722;0.500;2023-06-24T09:39:10;8;8;
49462;PMS5003;35357;51.722;0.500;2023-06-24T09:41:40;8;8;
49462;PMS5003;35357;51.722;0.500;2023-06-24T09:44:08;7;7;
49462;PMS5003;35357;51.722;0.500;2023-06-24T09:46:37;7;6;
49462;PMS5003;35357;51.722;0.500;2023-06-24T09:49:04;7;7;
49462;PMS5003;35357;51.722;0.500;2023-06-24T09:51:32;8;8;
49462;PMS5003;35357;51.722;0.500;2023-06-24T09:54:04;9;9;
49462;PMS5003;35357;51.722;0.500;2023-06-24T09:56:33;9;9;
49462;PMS5003;35357;51.722;0.500;2023-06-24T09:59:03;9;8;
49462;PMS5003;35357;51.722;0.500;2023-06-24T10:01:31;9;9;
49462;PMS5003;35357;51.722;0.500;2023-06-24T10:04:01;6;6;
49462;PMS5003;35357;51.722;0.500;2023-06-24T10:06:29;7;5;
49462;PMS5003;35357;51.722;0.500;2023-06-24T10:08:57;6;6;
49462;PMS5003;35357;51.722;0.500;2023-06-24T10:11:26;8;7;
49462;PMS5003;35357;51.722;0.500;2023-06-24T10:13:53;7;7;
49462;PMS5003;35357;51.722;0.500;2023-06-24T10:16:20;5;5;
49462;PMS5003;35357;51.722;0.500;2023-06-24T10:18:48;5;5;
49462;PMS5003;35357;51.722;0.500;2023-06-24T10:21:16;9;9;
49462;PMS5003;35357;51.722;0.500;2023-06-24T10:23:50;8;8;
49462;PMS5003;35357;51.722;0.500;2023-06-24T10:26:22;7;7;
49462;PMS5003;35357;51.722;0.500;2023-06-24T10:29:08;5;5;
49462;PMS5003;35357;51.722;0.500;2023-06-24T10:31:50;7;6;
49462;PMS5003;35357;51.722;0.500;2023-06-24T10:34:38;6;6;
49462;PMS5003;35357;51.722;0.500;2023-06-24T10:37:09;7;7;
49462;PMS5003;35357;51.722;0.500;2023-06-24T10:39:40;6;6;
49462;PMS5003;35357;51.722;0.500;2023-06-24T10:42:44;8;8;
49462;PMS5003;35357;51.722;0.500;2023-06-24T10:45:13;8;7;
49462;PMS5003;35357;51.722;0.500;2023-06-24T10:47:42;7;6;
49462;PMS5003;35357;51.722;0.500;2023-06-24T10:50:11;4;4;
49462;PMS5003;35357;51.722;0.500;2023-06-24T10:52:39;6;6;
49462;PMS5003;35357;51.722;0.500;2023-06-24T10:55:08;7;6;
49462;PMS5003;35357;51.722;0.500;2023-06-24T10:57:36;6;6;
49462;PMS5003;35357;51.722;0.500;2023-06-24T11:00:04;5;5;
49462;PMS5003;35357;51.722;0.500;2023-06-24T11:02:32;8;8;
49462;PMS5003;35357;51.722;0.500;2023-06-24T11:04:59;4;4;
49462;PMS5003;35357;51.722;0.500;2023-06-24T11:07:28;4;3;
49462;PMS5003;35357;51.722;0.500;2023-06-24T11:09:58;5;5;
49462;PMS5003;35357;51.722;0.500;2023-06-24T11:12:28;4;4;
49462;PMS5003;35357;51.722;0.500;2023-06-24T11:14:57;5;5;
49462;PMS5003;35357;51.722;0.500;2023-06-24T11:17:24;5;5;
49462;PMS5003;35357;51.722;0.500;2023-06-24T11:19:52;4;4;
49462;PMS5003;35357;51.722;0.500;2023-06-24T11:22:19;5;5;
49462;PMS5003;35357;51.722;0.500;2023-06-24T11:24:48;6;6;
49462;PMS5003;35357;51.722;0.500;2023-06-24T11:27:15;3;3;
49462;PMS5003;35357;51.722;0.500;2023-06-24T11:29:42;5;5;
49462;PMS5003;35357;51.722;0.500;2023-06-24T11:32:11;5;5;
49462;PMS5003;35357;51.722;0.500;2023-06-24T11:34:38;5;4;
49462;PMS5003;35357;51.722;0.500;2023-06-24T11:37:13;5;5;
49462;PMS5003;35357;51.722;0.500;2023-06-24T11:39:41;5;5;
49462;PMS5003;35357;51.722;0.500;2023-06-24T11:42:09;5;5;
49462;PMS5003;35357;51.722;0.500;2023-06-24T11:44:40;5;5;
49462;PMS5003;35357;51.722;0.500;2023-06-24T11:47:08;4;4;
49462;PMS5003;35357;51.722;0.500;2023-06-24T11:49:53;6;4;
49462;PMS5003;35357;51.722;0.500;2023-06-24T11:52:27;3;3;
49462;PMS5003;35357;51.722;0.500;2023-06-24T11:54:59;3;3;
49462;PMS5003;35357;51.722;0.500;2023-06-24T11:57:59;4;4;
49462;PMS5003;35357;51.722;0.500;2023-06-24T12:00:28;4;4;
49462;PMS5003;35357;51.722;0.500;2023-06-24T12:02:57;4;4;
49462;PMS5003;35357;51.722;0.500;2023-06-24T12:05:26;4;4;
49462;PMS5003;35357;51.722;0.500;2023-06-24T12:07:55;4;4;
49462;PMS5003;35357;51.722;0.500;2023-06-24T12:10:23;4;3;
49462;PMS5003;35357;51.722;0.500;2023-06-24T12:12:51;2;2;
49462;PMS5003;35357;51.722;0.500;2023-06-24T12:15:18;3;3;
49462;PMS5003;35357;51.722;0.500;2023-06-24T12:17:46;4;4;
49462;PMS5003;35357;51.722;0.500;2023-06-24T12:20:13;3;3;
49462;PMS5003;35357;51.722;0.500;2023-06-24T12:22:41;4;4;
49462;PMS5003;35357;51.722;0.500;2023-06-24T12:25:09;4;4;
49462;PMS5003;35357;51.722;0.500;2023-06-24T12:27:37;4;4;
49462;PMS5003;35357;51.722;0.500;2023-06-24T12:30:05;4;4;
49462;PMS5003;35357;51.722;0.500;2023-06-24T12:32:33;3;3;
49462;PMS5003;35357;51.722;0.500;2023-06-24T12:35:00;3;3;
49462;PMS5003;35357;51.722;0.500;2023-06-24T12:37:29;5;5;
49462;PMS5003;35357;51.722;0.500;2023-06-24T12:39:56;2;2;
49462;PMS5003;35357;51.722;0.500;2023-06-24T12:42:24;4;4;
49462;PMS5003;35357;51.722;0.500;2023-06-24T12:44:51;3;3;
49462;PMS5003;35357;51.722;0.500;2023-06-24T12:47:19;3;2;
49462;PMS5003;35357;51.722;0.500;2023-06-24T12:49:47;3;3;
49462;PMS5003;35357;51.722;0.500;2023-06-24T12:52:14;4;4;
49462;PMS5003;35357;51.722;0.500;2023-06-24T12:54:42;4;3;
49462;PMS5003;35357;51.722;0.500;2023-06-24T12:57:09;2;2;
49462;PMS5003;35357;51.722;0.500;2023-06-24T12:59:37;4;3;
49462;PMS5003;35357;51.722;0.500;2023-06-24T13:02:04;3;3;
49462;PMS5003;35357;51.722;0.500;2023-06-24T13:04:32;4;4;
49462;PMS5003;35357;51.722;0.500;2023-06-24T13:07:00;2;2;
49462;PMS5003;35357;51.722;0.500;2023-06-24T13:09:26;3;3;
49462;PMS5003;35357;51.722;0.500;2023-06-24T13:11:54;2;2;
49462;PMS5003;35357;51.722;0.500;2023-06-24T13:14:21;4;3;
49462;PMS5003;35357;51.722;0.500;2023-06-24T13:16:47;3;3;
49462;PMS5003;35357;51.722;0.500;2023-06-24T13:19:14;3;3;
49462;PMS5003;35357;51.722;0.500;2023-06-24T13:21:41;2;2;
49462;PMS5003;35357;51.722;0.500;2023-06-24T13:24:07;4;4;
49462;PMS5003;35357;51.722;0.500;2023-06-24T13:26:34;4;4;
49462;PMS5003;35357;51.722;0.500;2023-06-24T13:29:01;4;4;
49462;PMS5003;35357;51.722;0.500;2023-06-24T13:31:27;3;3;
49462;PMS5003;35357;51.722;0.500;2023-06-24T13:33:54;3;3;
49462;PMS5003;35357;51.722;0.500;2023-06-24T13:36:37;5;5;
49462;PMS5003;35357;51.722;0.500;2023-06-24T13:39:05;4;3;
49462;PMS5003;35357;51.722;0.500;2023-06-24T13:41:33;4;4;
49462;PMS5003;35357;51.722;0.500;2023-06-24T13:44:01;5;4;
49462;PMS5003;35357;51.722;0.500;2023-06-24T13:46:30;6;6;
49462;PMS5003;35357;51.722;0.500;2023-06-24T13:48:58;4;3;
49462;PMS5003;35357;51.722;0.500;2023-06-24T13:51:26;3;3;
49462;PMS5003;35357;51.722;0.500;2023-06-24T13:53:54;3;3;
49462;PMS5003;35357;51.722;0.500;2023-06-24T13:56:22;5;5;
49462;PMS5003;35357;51.722;0.500;2023-06-24T13:58:50;4;4;
49462;PMS5003;35357;51.722;0.500;2023-06-24T14:01:18;3;3;
49462;PMS5003;35357;51.722;0.500;2023-06-24T14:03:46;4;4;
49462;PMS5003;35357;51.722;0.500;2023-06-24T14:06:14;4;4;
49462;PMS5003;35357;51.722;0.500;2023-06-24T14:08:43;6;6;
49462;PMS5003;35357;51.722;0.500;2023-06-24T14:11:10;4;4;
49462;PMS5003;35357;51.722;0.500;2023-06-24T14:13:38;4;4;
49462;PMS5003;35357;51.722;0.500;2023-06-24T14:16:06;5;5;
49462;PMS5003;35357;51.722;0.500;2023-06-24T14:18:34;5;5;
49462;PMS5003;35357;51.722;0.500;2023-06-24T14:21:01;4;4;
49462;PMS5003;35357;51.722;0.500;2023-06-24T14:23:30;4;4;
49462;PMS5003;35357;51.722;0.500;2023-06-24T14:25:59;5;4;
49462;PMS5003;35357;51.722;0.500;2023-06-24T14:28:27;4;3;
49462;PMS5003;35357;51.722;0.500;2023-06-24T14:30:54;3;3;
49462;PMS5003;35357;51.722;0.500;2023-06-24T14:33:22;4;4;
49462;PMS5003;35357;51.722;0.500;2023-06-24T14:35:49;5;5;
49462;PMS5003;35357;51.722;0.500;2023-06-24T14:38:17;5;5;
49462;PMS5003;35357;51.722;0.500;2023-06-24T14:40:44;6;5;
49462;PMS5003;35357;51.722;0.500;2023-06-24T14:43:11;5;5;
49462;PMS5003;35357;51.722;0.500;2023-06-24T14:45:39;11;11;
49462;PMS5003;35357;51.722;0.500;2023-06-24T14:48:05;6;6;
49462;PMS5003;35357;51.722;0.500;2023-06-24T14:50:32;6;5;
49462;PMS5003;35357;51.722;0.500;2023-06-24T14:53:00;8;8;
49462;PMS5003;35357;51.722;0.500;2023-06-24T14:55:27;4;4;
49462;PMS5003;35357;51.722;0.500;2023-06-24T14:57:55;6;5;
49462;PMS5003;35357;51.722;0.500;2023-06-24T15:00:22;5;5;
49462;PMS5003;35357;51.722;0.500;2023-06-24T15:02:50;4;4;
49462;PMS5003;35357;51.722;0.500;2023-06-24T15:05:16;2;2;
49462;PMS5003;35357;51.722;0.500;2023-06-24T15:07:43;5;4;
49462;PMS5003;35357;51.722;0.500;2023-06-24T15:10:11;4;4;
49462;PMS5003;35357;51.722;0.500;2023-06-24T15:12:38;4;4;
49462;PMS5003;35357;51.722;0.500;2023-06-24T15:15:05;4;4;
49462;PMS5003;35357;51.722;0.500;2023-06-24T15:17:33;3;3;
49462;PMS5003;35357;51.722;0.500;2023-06-24T15:20:00;4;4;
49462;PMS5003;35357;51.722;0.500;2023-06-24T15:22:27;6;6;
49462;PMS5003;35357;51.722;0.500;2023-06-24T15:24:54;4;4;
49462;PMS5003;35357;51.722;0.500;2023-06-24T15:27:20;3;3;
49462;PMS5003;35357;51.722;0.500;2023-06-24T15:29:47;5;5;
49462;PMS5003;35357;51.722;0.500;2023-06-24T15:32:14;5;5;
49462;PMS5003;35357;51.722;0.500;2023-06-24T15:34:41;4;4;
49462;PMS5003;35357;51.722;0.500;2023-06-24T15:37:09;4;4;
49462;PMS5003;35357;51.722;0.500;2023-06-24T15:39:36;3;3;
49462;PMS5003;35357;51.722;0.500;2023-06-24T15:42:02;4;4;
49462;PMS5003;35357;51.722;0.500;2023-06-24T15:44:30;4;4;
49462;PMS5003;35357;51.722;0.500;2023-06-24T15:46:57;3;3;
49462;PMS5003;35357;51.722;0.500;2023-06-24T15:49:24;5;5;
49462;PMS5003;35357;51.722;0.500;2023-06-24T15:51:51;6;6;
49462;PMS5003;35357;51.722;0.500;2023-06-24T15:54:17;3;3;
49462;PMS5003;35357;51.722;0.500;2023-06-24T15:56:44;4;4;
49462;PMS5003;35357;51.722;0.500;2023-06-24T15:59:11;4;4;
49462;PMS5003;35357;51.722;0.500;2023-06-24T16:01:38;3;3;
49462;PMS5003;35357;51.722;0.500;2023-06-24T16:04:04;3;3;
49462;PMS5003;35357;51.722;0.500;2023-06-24T16:06:31;6;5;
49462;PMS5003;35357;51.722;0.500;2023-06-24T16:08:58;5;5;
49462;PMS5003;35357;51.722;0.500;2023-06-24T16:11:25;5;5;
49462;PMS5003;35357;51.722;0.500;2023-06-24T16:13:53;3;3;
49462;PMS5003;35357;51.722;0.500;2023-06-24T16:16:20;4;4;
49462;PMS5003;35357;51.722;0.500;2023-06-24T16:18:46;6;5;
49462;PMS5003;35357;51.722;0.500;2023-06-24T16:21:13;4;4;
49462;PMS5003;35357;51.722;0.500;2023-06-24T16:23:40;5;4;
49462;PMS5003;35357;51.722;0.500;2023-06-24T16:26:06;6;3;
49462;PMS5003;35357;51.722;0.500;2023-06-24T16:28:33;3;3;
49462;PMS5003;35357;51.722;0.500;2023-06-24T16:31:01;3;3;
49462;PMS5003;35357;51.722;0.500;2023-06-24T16:33:28;4;4;
49462;PMS5003;35357;51.722;0.500;2023-06-24T16:35:56;4;3;
49462;PMS5003;35357;51.722;0.500;2023-06-24T16:38:23;4;4;
49462;PMS5003;35357;51.722;0.500;2023-06-24T16:40:50;4;4;
49462;PMS5003;35357;51.722;0.500;2023-06-24T16:43:18;4;4;